createdAt,value
2023-03-06T00:00:44.144Z,95344
2023-03-06T00:01:44.115Z,95344
2023-03-06T00:02:44.148Z,95341
2023-03-06T00:03:44.174Z,95341
2023-03-06T00:04:44.200Z,95340
2023-03-06T00:06:44.113Z,95338
2023-03-06T00:07:44.120Z,95338
2023-03-06T00:08:44.113Z,95338
2023-03-06T00:09:44.121Z,95337
2023-03-06T00:10:44.131Z,95337
2023-03-06T00:12:44.173Z,95338
2023-03-06T00:13:44.137Z,95338
2023-03-06T00:15:44.193Z,95331
2023-03-06T00:18:44.158Z,95329
2023-03-06T00:19:44.197Z,95330
2023-03-06T00:20:44.170Z,95330
2023-03-06T00:21:44.206Z,95325
2023-03-06T00:22:44.241Z,95323
2023-03-06T00:23:44.201Z,95326
2023-03-06T00:24:44.178Z,95326
2023-03-06T00:25:44.383Z,95322
2023-03-06T00:26:44.173Z,95322
2023-03-06T00:27:44.163Z,95321
2023-03-06T00:28:44.209Z,95318
2023-03-06T00:29:44.212Z,95316
2023-03-06T00:30:44.265Z,95314
2023-03-06T00:31:46.861Z,95308
2023-03-06T00:32:44.211Z,95308
2023-03-06T00:33:44.236Z,95308
2023-03-06T00:34:44.228Z,95308
2023-03-06T00:35:44.213Z,95307
2023-03-06T00:36:44.233Z,95309
2023-03-06T00:37:44.233Z,95308
2023-03-06T00:38:44.193Z,95309
2023-03-06T00:39:44.206Z,95305
2023-03-06T00:40:44.218Z,95305
2023-03-06T00:41:46.861Z,95305
2023-03-06T00:42:44.253Z,95303
2023-03-06T00:43:44.247Z,95300
2023-03-06T00:44:44.239Z,95300
2023-03-06T00:45:44.288Z,95304
2023-03-06T00:47:44.260Z,95294
2023-03-06T00:48:44.247Z,95292
2023-03-06T00:49:44.267Z,95290
2023-03-06T00:51:44.309Z,95290
2023-03-06T00:52:44.267Z,95290
2023-03-06T00:53:44.267Z,95290
2023-03-06T00:54:44.268Z,95290
2023-03-06T00:55:44.277Z,95290
2023-03-06T00:56:44.274Z,95290
2023-03-06T00:57:44.243Z,95283
2023-03-06T00:58:44.295Z,95283
2023-03-06T00:59:44.279Z,95287
2023-03-06T01:01:44.287Z,95282
2023-03-06T01:02:44.265Z,95282
2023-03-06T01:04:44.295Z,95280
2023-03-06T01:05:44.315Z,95276
2023-03-06T01:06:44.361Z,95275
2023-03-06T01:07:44.304Z,95269
2023-03-06T01:10:44.263Z,95264
2023-03-06T01:11:44.302Z,95260
2023-03-06T01:13:44.283Z,95257
2023-03-06T01:14:44.276Z,95257
2023-03-06T01:15:44.306Z,95258
2023-03-06T01:16:44.379Z,95257
2023-03-06T01:17:44.280Z,95255
2023-03-06T01:18:44.321Z,95249
2023-03-06T01:19:44.379Z,95246
2023-03-06T01:20:44.302Z,95244
2023-03-06T01:21:44.294Z,95239
2023-03-06T01:22:44.303Z,95234
2023-03-06T01:23:44.303Z,95234
2023-03-06T01:24:44.344Z,95231
2023-03-06T01:25:44.320Z,95230
2023-03-06T01:27:44.315Z,95225
2023-03-06T01:28:44.358Z,95221
2023-03-06T01:29:44.298Z,95221
2023-03-06T01:30:44.348Z,95221
2023-03-06T01:32:44.400Z,95222
2023-03-06T01:33:44.362Z,95222
2023-03-06T01:34:44.321Z,95218
2023-03-06T01:35:44.390Z,95217
2023-03-06T01:36:44.357Z,95217
2023-03-06T01:39:44.386Z,95210
2023-03-06T01:41:44.356Z,95210
2023-03-06T01:42:46.411Z,95208
2023-03-06T01:43:44.380Z,95212
2023-03-06T01:44:44.389Z,95208
2023-03-06T01:45:47.389Z,95202
2023-03-06T01:47:44.348Z,95201
2023-03-06T01:48:44.368Z,95201
2023-03-06T01:49:44.364Z,95198
2023-03-06T01:50:44.397Z,95198
2023-03-06T01:51:44.401Z,95198
2023-03-06T01:52:44.416Z,95196
2023-03-06T01:53:44.392Z,95194
2023-03-06T01:54:44.419Z,95194
2023-03-06T01:56:44.432Z,95192
2023-03-06T01:58:44.424Z,95191
2023-03-06T01:59:44.443Z,95188
2023-03-06T02:00:44.593Z,95188
2023-03-06T02:01:44.424Z,95192
2023-03-06T02:02:44.442Z,95191
2023-03-06T02:03:44.409Z,95185
2023-03-06T02:04:44.441Z,95185
2023-03-06T02:05:44.413Z,95181
2023-03-06T02:06:44.408Z,95182
2023-03-06T02:07:44.422Z,95181
2023-03-06T02:08:44.408Z,95181
2023-03-06T02:10:44.504Z,95183
2023-03-06T02:11:44.532Z,95182
2023-03-06T02:12:44.483Z,95173
2023-03-06T02:13:44.426Z,95174
2023-03-06T02:14:44.434Z,95176
2023-03-06T02:15:44.466Z,95173
2023-03-06T02:16:44.562Z,95173
2023-03-06T02:18:44.432Z,95175
2023-03-06T02:20:44.559Z,95172
2023-03-06T02:21:44.493Z,95170
2023-03-06T02:22:47.565Z,95168
2023-03-06T02:23:44.477Z,95168
2023-03-06T02:24:44.494Z,95167
2023-03-06T02:25:44.451Z,95165
2023-03-06T02:26:44.737Z,95163
2023-03-06T02:27:44.541Z,95165
2023-03-06T02:28:44.500Z,95164
2023-03-06T02:29:44.462Z,95164
2023-03-06T02:31:44.490Z,95158
2023-03-06T02:32:44.471Z,95158
2023-03-06T02:33:44.552Z,95161
2023-03-06T02:34:44.557Z,95155
2023-03-06T02:36:44.485Z,95152
2023-03-06T02:37:44.490Z,95150
2023-03-06T02:38:44.490Z,95150
2023-03-06T02:40:44.530Z,95143
2023-03-06T02:41:44.568Z,95140
2023-03-06T02:42:44.500Z,95140
2023-03-06T02:45:44.649Z,95138
2023-03-06T02:47:44.562Z,95139
2023-03-06T02:48:44.545Z,95139
2023-03-06T02:49:44.538Z,95136
2023-03-06T02:51:44.549Z,95133
2023-03-06T02:53:44.506Z,95130
2023-03-06T02:54:44.535Z,95136
2023-03-06T02:55:44.565Z,95134
2023-03-06T02:56:44.563Z,95134
2023-03-06T02:58:44.580Z,95131
2023-03-06T02:59:47.860Z,95134
2023-03-06T03:01:44.580Z,95131
2023-03-06T03:04:44.692Z,95135
2023-03-06T03:05:44.585Z,95136
2023-03-06T03:06:44.574Z,95136
2023-03-06T03:07:44.581Z,95137
2023-03-06T03:08:44.586Z,95136
2023-03-06T03:10:44.618Z,95133
2023-03-06T03:11:44.617Z,95131
2023-03-06T03:12:44.607Z,95132
2023-03-06T03:14:44.576Z,95128
2023-03-06T03:15:44.623Z,95128
2023-03-06T03:16:44.600Z,95129
2023-03-06T03:17:44.616Z,95127
2023-03-06T03:18:44.656Z,95127
2023-03-06T03:19:44.613Z,95126
2023-03-06T03:20:44.610Z,95127
2023-03-06T03:21:44.606Z,95128
2023-03-06T03:22:44.621Z,95126
2023-03-06T03:23:44.602Z,95128
2023-03-06T03:25:44.614Z,95125
2023-03-06T03:26:44.602Z,95125
2023-03-06T03:27:44.605Z,95127
2023-03-06T03:28:44.628Z,95127
2023-03-06T03:29:44.661Z,95130
2023-03-06T03:30:44.686Z,95130
2023-03-06T03:32:44.684Z,95126
2023-03-06T03:33:44.651Z,95126
2023-03-06T03:34:44.630Z,95123
2023-03-06T03:35:44.689Z,95123
2023-03-06T03:36:48.067Z,95122
2023-03-06T03:37:44.648Z,95122
2023-03-06T03:38:44.697Z,95118
2023-03-06T03:39:44.695Z,95117
2023-03-06T03:41:44.671Z,95117
2023-03-06T03:42:44.663Z,95119
2023-03-06T03:43:44.675Z,95119
2023-03-06T03:44:44.633Z,95119
2023-03-06T03:45:44.656Z,95117
2023-03-06T03:47:44.654Z,95116
2023-03-06T03:48:44.720Z,95114
2023-03-06T03:49:44.684Z,95114
2023-03-06T03:51:44.696Z,95117
2023-03-06T03:52:44.697Z,95117
2023-03-06T03:54:44.718Z,95117
2023-03-06T03:55:44.716Z,95114
2023-03-06T03:57:44.730Z,95112
2023-03-06T03:58:44.675Z,95114
2023-03-06T03:59:44.708Z,95114
2023-03-06T04:01:44.796Z,95115
2023-03-06T04:02:44.733Z,95115
2023-03-06T04:03:44.718Z,95114
2023-03-06T04:05:44.733Z,95118
2023-03-06T04:06:44.764Z,95118
2023-03-06T04:07:44.724Z,95119
2023-03-06T04:08:44.725Z,95119
2023-03-06T04:09:44.743Z,95120
2023-03-06T04:10:44.744Z,95116
2023-03-06T04:11:44.740Z,95116
2023-03-06T04:12:44.745Z,95116
2023-03-06T04:13:48.350Z,95119
2023-03-06T04:14:44.753Z,95119
2023-03-06T04:15:44.727Z,95117
2023-03-06T04:16:44.750Z,95114
2023-03-06T04:17:44.732Z,95114
2023-03-06T04:19:44.779Z,95112
2023-03-06T04:21:44.723Z,95110
2023-03-06T04:22:44.767Z,95110
2023-03-06T04:24:44.798Z,95111
2023-03-06T04:25:44.729Z,95111
2023-03-06T04:27:44.774Z,95112
2023-03-06T04:28:44.787Z,95111
2023-03-06T04:29:44.788Z,95117
2023-03-06T04:30:44.764Z,95116
2023-03-06T04:31:44.822Z,95116
2023-03-06T04:32:44.810Z,95116
2023-03-06T04:33:44.789Z,95109
2023-03-06T04:35:44.870Z,95109
2023-03-06T04:37:44.783Z,95100
2023-03-06T04:38:44.803Z,95099
2023-03-06T04:41:44.825Z,95098
2023-03-06T04:42:44.784Z,95096
2023-03-06T04:43:44.832Z,95098
2023-03-06T04:44:44.816Z,95091
2023-03-06T04:45:44.865Z,95092
2023-03-06T04:46:44.839Z,95092
2023-03-06T04:47:44.821Z,95089
2023-03-06T04:48:44.824Z,95090
2023-03-06T04:49:44.841Z,95081
2023-03-06T04:50:48.601Z,95081
2023-03-06T04:51:44.830Z,95081
2023-03-06T04:52:44.842Z,95079
2023-03-06T04:53:44.854Z,95082
2023-03-06T04:54:44.829Z,95084
2023-03-06T04:55:44.828Z,95084
2023-03-06T04:56:44.799Z,95088
2023-03-06T04:58:44.831Z,95087
2023-03-06T04:59:44.840Z,95088
2023-03-06T05:01:44.832Z,95087
2023-03-06T05:03:44.864Z,95089
2023-03-06T05:04:44.818Z,95093
2023-03-06T05:05:44.829Z,95090
2023-03-06T05:06:45.028Z,95089
2023-03-06T05:07:44.871Z,95087
2023-03-06T05:08:44.831Z,95090
2023-03-06T05:09:44.844Z,95085
2023-03-06T05:10:44.880Z,95090
2023-03-06T05:11:44.849Z,95086
2023-03-06T05:12:44.857Z,95091
2023-03-06T05:13:44.840Z,95092
2023-03-06T05:14:47.679Z,95092
2023-03-06T05:15:44.836Z,95092
2023-03-06T05:16:44.945Z,95091
2023-03-06T05:17:44.893Z,95092
2023-03-06T05:18:44.906Z,95097
2023-03-06T05:19:44.896Z,95097
2023-03-06T05:20:44.902Z,95098
2023-03-06T05:21:44.858Z,95098
2023-03-06T05:22:44.933Z,95096
2023-03-06T05:23:44.868Z,95096
2023-03-06T05:24:44.913Z,95097
2023-03-06T05:25:44.916Z,95097
2023-03-06T05:26:44.869Z,95091
2023-03-06T05:27:48.868Z,95086
2023-03-06T05:28:44.922Z,95086
2023-03-06T05:29:44.915Z,95089
2023-03-06T05:30:44.917Z,95087
2023-03-06T05:31:44.921Z,95091
2023-03-06T05:32:44.894Z,95091
2023-03-06T05:33:44.897Z,95091
2023-03-06T05:34:44.936Z,95093
2023-03-06T05:36:44.938Z,95089
2023-03-06T05:37:44.957Z,95091
2023-03-06T05:38:44.956Z,95092
2023-03-06T05:39:44.938Z,95092
2023-03-06T05:40:44.955Z,95092
2023-03-06T05:42:44.975Z,95100
2023-03-06T05:43:45.008Z,95100
2023-03-06T05:44:44.967Z,95104
2023-03-06T05:45:44.971Z,95104
2023-03-06T05:46:44.966Z,95104
2023-03-06T05:47:44.955Z,95103
2023-03-06T05:48:46.753Z,95109
2023-03-06T05:50:44.976Z,95112
2023-03-06T05:51:44.982Z,95112
2023-03-06T05:52:44.988Z,95112
2023-03-06T05:53:44.977Z,95110
2023-03-06T05:55:44.942Z,95110
2023-03-06T05:56:44.983Z,95109
2023-03-06T05:57:45.013Z,95112
2023-03-06T05:58:44.972Z,95114
2023-03-06T05:59:46.417Z,95117
2023-03-06T06:00:44.968Z,95114
2023-03-06T06:01:44.988Z,95120
2023-03-06T06:02:45.037Z,95123
2023-03-06T06:03:45.092Z,95123
2023-03-06T06:04:49.293Z,95121
2023-03-06T06:05:44.992Z,95121
2023-03-06T06:06:45.015Z,95122
2023-03-06T06:08:45.015Z,95120
2023-03-06T06:10:44.986Z,95122
2023-03-06T06:11:45.023Z,95126
2023-03-06T06:14:45.036Z,95125
2023-03-06T06:15:45.081Z,95124
2023-03-06T06:16:45.022Z,95124
2023-03-06T06:17:45.031Z,95129
2023-03-06T06:18:45.030Z,95132
2023-03-06T06:22:45.016Z,95132
2023-03-06T06:23:45.018Z,95133
2023-03-06T06:24:45.044Z,95134
2023-03-06T06:26:45.117Z,95136
2023-03-06T06:28:45.064Z,95132
2023-03-06T06:29:45.027Z,95134
2023-03-06T06:30:45.261Z,95133
2023-03-06T06:31:45.120Z,95139
2023-03-06T06:32:45.076Z,95139
2023-03-06T06:33:45.067Z,95141
2023-03-06T06:34:45.084Z,95142
2023-03-06T06:35:45.143Z,95144
2023-03-06T06:36:45.101Z,95145
2023-03-06T06:37:45.105Z,95143
2023-03-06T06:39:45.039Z,95142
2023-03-06T06:40:54.049Z,95144
2023-03-06T06:42:00.057Z,95156
2023-03-06T06:42:45.090Z,95155
2023-03-06T06:43:45.092Z,95155
2023-03-06T06:44:45.108Z,95155
2023-03-06T06:45:45.061Z,95160
2023-03-06T06:47:45.226Z,95158
2023-03-06T06:48:45.082Z,95158
2023-03-06T06:49:45.079Z,95157
2023-03-06T06:50:45.081Z,95155
2023-03-06T06:51:45.124Z,95149
2023-03-06T06:52:45.115Z,95149
2023-03-06T06:53:45.161Z,95152
2023-03-06T06:54:45.097Z,95157
2023-03-06T06:55:45.124Z,95157
2023-03-06T06:56:45.144Z,95155
2023-03-06T06:57:45.162Z,95152
2023-03-06T06:58:45.084Z,95152
2023-03-06T06:59:45.124Z,95153
2023-03-06T07:00:45.134Z,95148
2023-03-06T07:01:45.214Z,95152
2023-03-06T07:02:45.119Z,95155
2023-03-06T07:03:45.129Z,95155
2023-03-06T07:05:02.100Z,95153
2023-03-06T07:05:45.957Z,95152
2023-03-06T07:06:45.116Z,95154
2023-03-06T07:07:45.106Z,95157
2023-03-06T07:08:45.165Z,95157
2023-03-06T07:09:45.168Z,95157
2023-03-06T07:11:46.006Z,95153
2023-03-06T07:12:45.168Z,95153
2023-03-06T07:14:45.215Z,95154
2023-03-06T07:15:45.170Z,95154
2023-03-06T07:17:45.406Z,95155
2023-03-06T07:18:49.893Z,95155
2023-03-06T07:19:45.192Z,95153
2023-03-06T07:20:45.157Z,95153
2023-03-06T07:21:45.154Z,95160
2023-03-06T07:22:51.320Z,95154
2023-03-06T07:23:45.236Z,95154
2023-03-06T07:24:45.229Z,95155
2023-03-06T07:25:45.201Z,95156
2023-03-06T07:26:45.205Z,95156
2023-03-06T07:27:51.048Z,95153
2023-03-06T07:28:52.348Z,95160
2023-03-06T07:29:45.204Z,95161
2023-03-06T07:30:45.216Z,95161
2023-03-06T07:31:45.242Z,95160
2023-03-06T07:32:45.216Z,95163
2023-03-06T07:33:45.235Z,95163
2023-03-06T07:34:45.223Z,95161
2023-03-06T07:35:45.386Z,95160
2023-03-06T07:36:45.226Z,95160
2023-03-06T07:37:45.243Z,95159
2023-03-06T07:38:45.218Z,95160
2023-03-06T07:39:45.178Z,95161
2023-03-06T07:40:45.279Z,95158
2023-03-06T07:41:45.238Z,95156
2023-03-06T07:42:45.230Z,95156
2023-03-06T07:43:45.237Z,95159
2023-03-06T07:44:45.253Z,95158
2023-03-06T07:45:45.254Z,95156
2023-03-06T07:46:45.283Z,95156
2023-03-06T07:47:45.273Z,95156
2023-03-06T07:48:45.233Z,95161
2023-03-06T07:49:45.233Z,95161
2023-03-06T07:50:45.266Z,95160
2023-03-06T07:51:45.274Z,95160
2023-03-06T07:52:45.274Z,95164
2023-03-06T07:53:45.274Z,95160
2023-03-06T07:54:45.271Z,95156
2023-03-06T07:55:50.188Z,95162
2023-03-06T07:56:45.234Z,95162
2023-03-06T07:57:45.294Z,95164
2023-03-06T07:58:45.320Z,95164
2023-03-06T07:59:45.262Z,95163
2023-03-06T08:00:45.292Z,95164
2023-03-06T08:01:45.265Z,95166
2023-03-06T08:02:45.320Z,95166
2023-03-06T08:03:45.356Z,95170
2023-03-06T08:04:45.313Z,95168
2023-03-06T08:05:45.355Z,95167
2023-03-06T08:06:45.270Z,95169
2023-03-06T08:07:45.288Z,95169
2023-03-06T08:08:45.313Z,95169
2023-03-06T08:09:45.467Z,95166
2023-03-06T08:10:45.313Z,95166
2023-03-06T08:11:45.343Z,95170
2023-03-06T08:12:45.280Z,95172
2023-03-06T08:13:45.326Z,95170
2023-03-06T08:14:45.323Z,95172
2023-03-06T08:15:45.310Z,95172
2023-03-06T08:16:45.298Z,95173
2023-03-06T08:17:45.279Z,95173
2023-03-06T08:18:46.569Z,95177
2023-03-06T08:19:45.341Z,95174
2023-03-06T08:20:45.361Z,95174
2023-03-06T08:21:45.370Z,95177
2023-03-06T08:22:45.335Z,95176
2023-03-06T08:23:45.339Z,95176
2023-03-06T08:24:45.358Z,95175
2023-03-06T08:25:45.361Z,95175
2023-03-06T08:26:45.343Z,95179
2023-03-06T08:27:45.320Z,95178
2023-03-06T08:28:45.372Z,95179
2023-03-06T08:29:45.415Z,95182
2023-03-06T08:30:45.360Z,95188
2023-03-06T08:31:45.445Z,95190
2023-03-06T08:32:50.387Z,95191
2023-03-06T08:34:46.113Z,95190
2023-03-06T08:35:45.379Z,95192
2023-03-06T08:37:45.882Z,95197
2023-03-06T08:38:45.394Z,95200
2023-03-06T08:39:45.355Z,95196
2023-03-06T08:41:45.409Z,95201
2023-03-06T08:42:45.430Z,95200
2023-03-06T08:43:45.437Z,95199
2023-03-06T08:44:45.382Z,95199
2023-03-06T08:45:45.426Z,95195
2023-03-06T08:47:45.395Z,95198
2023-03-06T08:48:45.365Z,95201
2023-03-06T08:49:45.804Z,95199
2023-03-06T08:50:45.396Z,95198
2023-03-06T08:51:45.356Z,95198
2023-03-06T08:52:45.369Z,95199
2023-03-06T08:55:45.496Z,95199
2023-03-06T08:56:45.385Z,95199
2023-03-06T08:58:45.419Z,95198
2023-03-06T08:59:45.386Z,95198
2023-03-06T09:00:45.457Z,95201
2023-03-06T09:01:45.588Z,95201
2023-03-06T09:02:45.405Z,95200
2023-03-06T09:03:45.473Z,95200
2023-03-06T09:04:45.396Z,95197
2023-03-06T09:05:45.391Z,95204
2023-03-06T09:06:45.732Z,95203
2023-03-06T09:07:45.424Z,95203
2023-03-06T09:08:45.443Z,95202
2023-03-06T09:09:45.425Z,95202
2023-03-06T09:10:45.469Z,95202
2023-03-06T09:11:45.444Z,95203
2023-03-06T09:13:45.445Z,95201
2023-03-06T09:14:45.427Z,95203
2023-03-06T09:15:45.438Z,95206
2023-03-06T09:16:45.502Z,95206
2023-03-06T09:17:45.504Z,95206
2023-03-06T09:18:45.471Z,95207
2023-03-06T09:19:45.579Z,95208
2023-03-06T09:20:45.458Z,95208
2023-03-06T09:21:45.485Z,95212
2023-03-06T09:22:45.484Z,95212
2023-03-06T09:23:45.437Z,95208
2023-03-06T09:24:45.438Z,95209
2023-03-06T09:25:45.467Z,95207
2023-03-06T09:26:47.583Z,95209
2023-03-06T09:27:45.467Z,95209
2023-03-06T09:28:45.457Z,95213
2023-03-06T09:29:46.653Z,95208
2023-03-06T09:31:45.617Z,95206
2023-03-06T09:32:45.478Z,95203
2023-03-06T09:33:45.500Z,95205
2023-03-06T09:34:45.507Z,95209
2023-03-06T09:35:45.527Z,95209
2023-03-06T09:36:56.568Z,95212
2023-03-06T09:37:45.509Z,95213
2023-03-06T09:38:45.478Z,95213
2023-03-06T09:39:45.534Z,95212
2023-03-06T09:40:45.481Z,95212
2023-03-06T09:41:45.474Z,95213
2023-03-06T09:42:45.520Z,95210
2023-03-06T09:43:46.041Z,95208
2023-03-06T09:44:45.506Z,95208
2023-03-06T09:45:45.595Z,95205
2023-03-06T09:46:45.559Z,95206
2023-03-06T09:47:45.546Z,95208
2023-03-06T09:48:45.505Z,95208
2023-03-06T09:49:45.578Z,95208
2023-03-06T09:50:45.517Z,95209
2023-03-06T09:51:45.515Z,95210
2023-03-06T09:52:45.535Z,95210
2023-03-06T09:53:45.513Z,95208
2023-03-06T09:54:45.523Z,95207
2023-03-06T09:55:45.570Z,95207
2023-03-06T09:56:45.550Z,95205
2023-03-06T09:57:45.582Z,95205
2023-03-06T09:58:45.530Z,95207
2023-03-06T09:59:45.543Z,95201
2023-03-06T10:00:45.541Z,95201
2023-03-06T10:02:45.739Z,95208
2023-03-06T10:03:45.550Z,95205
2023-03-06T10:04:45.609Z,95205
2023-03-06T10:05:45.573Z,95203
2023-03-06T10:07:46.300Z,95200
2023-03-06T10:08:45.591Z,95204
2023-03-06T10:09:45.600Z,95201
2023-03-06T10:10:45.625Z,95201
2023-03-06T10:11:45.573Z,95200
2023-03-06T10:12:45.605Z,95199
2023-03-06T10:13:45.608Z,95199
2023-03-06T10:14:48.744Z,95194
2023-03-06T10:15:45.669Z,95192
2023-03-06T10:16:45.613Z,95193
2023-03-06T10:17:45.581Z,95193
2023-03-06T10:18:45.584Z,95192
2023-03-06T10:19:45.582Z,95192
2023-03-06T10:20:46.350Z,95192
2023-03-06T10:21:45.638Z,95192
2023-03-06T10:22:55.385Z,95194
2023-03-06T10:23:45.634Z,95194
2023-03-06T10:24:45.638Z,95191
2023-03-06T10:25:45.691Z,95192
2023-03-06T10:26:45.773Z,95192
2023-03-06T10:27:45.649Z,95191
2023-03-06T10:28:45.612Z,95191
2023-03-06T10:29:59.892Z,95194
2023-03-06T10:30:45.757Z,95194
2023-03-06T10:31:45.674Z,95189
2023-03-06T10:32:49.099Z,95189
2023-03-06T10:33:45.663Z,95189
2023-03-06T10:34:45.652Z,95191
2023-03-06T10:35:45.798Z,95192
2023-03-06T10:36:45.673Z,95192
2023-03-06T10:37:45.995Z,95195
2023-03-06T10:38:45.679Z,95192
2023-03-06T10:39:45.674Z,95193
2023-03-06T10:40:45.671Z,95191
2023-03-06T10:41:46.268Z,95189
2023-03-06T10:42:45.673Z,95187
2023-03-06T10:43:45.745Z,95192
2023-03-06T10:44:45.690Z,95189
2023-03-06T10:45:49.280Z,95189
2023-03-06T10:46:45.714Z,95197
2023-03-06T10:47:45.655Z,95194
2023-03-06T10:48:45.698Z,95188
2023-03-06T10:49:45.671Z,95180
2023-03-06T10:51:45.698Z,95178
2023-03-06T10:52:45.701Z,95190
2023-03-06T10:53:45.715Z,95188
2023-03-06T10:54:45.703Z,95188
2023-03-06T10:55:45.703Z,95186
2023-03-06T10:56:45.748Z,95190
2023-03-06T10:57:46.583Z,95189
2023-03-06T10:59:45.719Z,95185
2023-03-06T11:00:45.687Z,95183
2023-03-06T11:01:45.879Z,95187
2023-03-06T11:02:45.738Z,95187
2023-03-06T11:03:45.676Z,95189
2023-03-06T11:04:45.770Z,95188
2023-03-06T11:05:45.712Z,95186
2023-03-06T11:06:45.796Z,95188
2023-03-06T11:07:45.751Z,95188
2023-03-06T11:08:45.703Z,95188
2023-03-06T11:09:45.703Z,95192
2023-03-06T11:10:45.717Z,95193
2023-03-06T11:11:45.752Z,95190
2023-03-06T11:12:45.751Z,95190
2023-03-06T11:13:45.797Z,95186
2023-03-06T11:14:45.791Z,95189
2023-03-06T11:15:45.815Z,95189
2023-03-06T11:16:45.770Z,95184
2023-03-06T11:17:45.733Z,95186
2023-03-06T11:18:47.136Z,95188
2023-03-06T11:19:45.765Z,95185
2023-03-06T11:20:52.159Z,95185
2023-03-06T11:21:45.726Z,95188
2023-03-06T11:22:48.116Z,95177
2023-03-06T11:23:45.764Z,95180
2023-03-06T11:24:45.803Z,95180
2023-03-06T11:25:45.740Z,95180
2023-03-06T11:26:45.744Z,95182
2023-03-06T11:27:45.773Z,95180
2023-03-06T11:28:45.777Z,95179
2023-03-06T11:29:45.786Z,95177
2023-03-06T11:30:45.762Z,95176
2023-03-06T11:31:45.878Z,95173
2023-03-06T11:32:45.760Z,95173
2023-03-06T11:33:45.783Z,95173
2023-03-06T11:34:49.168Z,95171
2023-03-06T11:35:46.067Z,95171
2023-03-06T11:36:45.778Z,95166
2023-03-06T11:37:45.821Z,95165
2023-03-06T11:38:45.784Z,95165
2023-03-06T11:39:45.772Z,95165
2023-03-06T11:40:45.768Z,95159
2023-03-06T11:41:46.609Z,95158
2023-03-06T11:42:45.813Z,95152
2023-03-06T11:43:45.821Z,95152
2023-03-06T11:44:45.823Z,95148
2023-03-06T11:45:45.803Z,95148
2023-03-06T11:46:45.817Z,95150
2023-03-06T11:47:45.901Z,95148
2023-03-06T11:48:45.782Z,95148
2023-03-06T11:49:45.835Z,95146
2023-03-06T11:51:45.840Z,95145
2023-03-06T11:52:45.837Z,95143
2023-03-06T11:53:46.064Z,95143
2023-03-06T11:54:45.850Z,95146
2023-03-06T11:55:45.872Z,95146
2023-03-06T11:56:45.863Z,95145
2023-03-06T11:57:45.832Z,95145
2023-03-06T11:58:45.860Z,95140
2023-03-06T11:59:45.848Z,95137
2023-03-06T12:00:45.901Z,95139
2023-03-06T12:01:45.944Z,95138
2023-03-06T12:02:45.864Z,95138
2023-03-06T12:03:45.871Z,95135
2023-03-06T12:04:45.882Z,95137
2023-03-06T12:05:45.960Z,95134
2023-03-06T12:06:45.848Z,95137
2023-03-06T12:07:45.841Z,95137
2023-03-06T12:09:45.882Z,95132
2023-03-06T12:10:51.461Z,95131
2023-03-06T12:11:47.239Z,95133
2023-03-06T12:12:45.843Z,95133
2023-03-06T12:13:45.865Z,95133
2023-03-06T12:14:45.900Z,95132
2023-03-06T12:15:45.897Z,95130
2023-03-06T12:17:45.922Z,95126
2023-03-06T12:18:45.965Z,95132
2023-03-06T12:19:45.916Z,95132
2023-03-06T12:20:45.873Z,95127
2023-03-06T12:21:45.862Z,95125
2023-03-06T12:22:57.412Z,95127
2023-03-06T12:24:45.870Z,95128
2023-03-06T12:26:45.919Z,95129
2023-03-06T12:28:46.545Z,95125
2023-03-06T12:29:45.929Z,95119
2023-03-06T12:30:45.936Z,95118
2023-03-06T12:31:45.983Z,95116
2023-03-06T12:32:45.965Z,95116
2023-03-06T12:33:45.914Z,95118
2023-03-06T12:34:46.009Z,95118
2023-03-06T12:35:45.991Z,95117
2023-03-06T12:36:45.944Z,95120
2023-03-06T12:37:45.942Z,95117
2023-03-06T12:38:45.972Z,95121
2023-03-06T12:39:45.913Z,95121
2023-03-06T12:40:45.947Z,95121
2023-03-06T12:41:45.955Z,95114
2023-03-06T12:42:45.980Z,95120
2023-03-06T12:43:45.983Z,95120
2023-03-06T12:44:45.969Z,95120
2023-03-06T12:45:46.103Z,95114
2023-03-06T12:46:45.969Z,95114
2023-03-06T12:47:45.975Z,95114
2023-03-06T12:48:47.352Z,95115
2023-03-06T12:49:47.494Z,95115
2023-03-06T12:50:46.121Z,95114
2023-03-06T12:51:46.036Z,95114
2023-03-06T12:52:45.996Z,95114
2023-03-06T12:53:45.976Z,95111
2023-03-06T12:54:45.967Z,95110
2023-03-06T12:55:45.973Z,95111
2023-03-06T12:56:46.104Z,95107
2023-03-06T12:58:45.956Z,95105
2023-03-06T12:59:45.968Z,95105
2023-03-06T13:00:47.865Z,95105
2023-03-06T13:01:46.079Z,95112
2023-03-06T13:02:46.223Z,95110
2023-03-06T13:03:46.047Z,95109
2023-03-06T13:04:45.985Z,95109
2023-03-06T13:06:50.910Z,95108
2023-03-06T13:07:46.040Z,95108
2023-03-06T13:09:46.084Z,95108
2023-03-06T13:10:46.044Z,95108
2023-03-06T13:11:46.037Z,95100
2023-03-06T13:12:46.009Z,95103
2023-03-06T13:13:46.004Z,95105
2023-03-06T13:14:54.239Z,95102
2023-03-06T13:15:46.484Z,95099
2023-03-06T13:16:46.110Z,95097
2023-03-06T13:17:46.111Z,95099
2023-03-06T13:18:46.019Z,95100
2023-03-06T13:19:46.058Z,95100
2023-03-06T13:20:46.046Z,95095
2023-03-06T13:21:46.191Z,95094
2023-03-06T13:22:46.066Z,95098
2023-03-06T13:23:46.031Z,95094
2023-03-06T13:24:46.052Z,95100
2023-03-06T13:25:47.609Z,95092
2023-03-06T13:26:46.057Z,95092
2023-03-06T13:27:46.356Z,95094
2023-03-06T13:28:46.065Z,95094
2023-03-06T13:29:46.050Z,95099
2023-03-06T13:30:46.121Z,95091
2023-03-06T13:31:46.136Z,95093
2023-03-06T13:32:46.068Z,95093
2023-03-06T13:33:46.074Z,95087
2023-03-06T13:35:46.089Z,95094
2023-03-06T13:36:46.133Z,95096
2023-03-06T13:37:46.097Z,95096
2023-03-06T13:38:46.096Z,95092
2023-03-06T13:39:46.439Z,95093
2023-03-06T13:40:46.105Z,95096
2023-03-06T13:41:46.165Z,95091
2023-03-06T13:42:46.110Z,95091
2023-03-06T13:43:46.123Z,95092
2023-03-06T13:44:46.134Z,95086
2023-03-06T13:45:46.141Z,95086
2023-03-06T13:46:46.138Z,95084
2023-03-06T13:48:09.662Z,95082
2023-03-06T13:48:46.334Z,95082
2023-03-06T13:49:46.126Z,95082
2023-03-06T13:50:46.121Z,95083
2023-03-06T13:51:46.178Z,95082
2023-03-06T13:52:46.144Z,95078
2023-03-06T13:53:46.191Z,95077
2023-03-06T13:56:46.142Z,95075
2023-03-06T13:57:46.388Z,95077
2023-03-06T13:59:46.175Z,95073
2023-03-06T14:00:46.147Z,95073
2023-03-06T14:01:46.162Z,95071
2023-03-06T14:02:49.170Z,95073
2023-03-06T14:03:46.146Z,95073
2023-03-06T14:04:46.158Z,95070
2023-03-06T14:05:46.154Z,95074
2023-03-06T14:06:46.171Z,95071
2023-03-06T14:07:46.215Z,95080
2023-03-06T14:08:46.220Z,95080
2023-03-06T14:09:46.134Z,95074
2023-03-06T14:10:46.194Z,95074
2023-03-06T14:12:46.217Z,95074
2023-03-06T14:13:47.687Z,95074
2023-03-06T14:14:46.518Z,95079
2023-03-06T14:15:46.190Z,95079
2023-03-06T14:16:50.283Z,95080
2023-03-06T14:17:46.212Z,95071
2023-03-06T14:18:46.210Z,95077
2023-03-06T14:19:46.156Z,95077
2023-03-06T14:20:46.323Z,95077
2023-03-06T14:21:46.209Z,95077
2023-03-06T14:22:46.244Z,95079
2023-03-06T14:23:46.159Z,95079
2023-03-06T14:24:46.178Z,95073
2023-03-06T14:25:46.238Z,95076
2023-03-06T14:26:46.210Z,95073
2023-03-06T14:27:46.257Z,95065
2023-03-06T14:28:46.210Z,95065
2023-03-06T14:29:46.227Z,95070
2023-03-06T14:30:46.186Z,95072
2023-03-06T14:31:46.420Z,95072
2023-03-06T14:32:46.219Z,95067
2023-03-06T14:33:46.226Z,95067
2023-03-06T14:34:46.260Z,95067